createdAt,value
2023-03-27T00:01:11.737Z,5.37
2023-03-27T00:06:30.228Z,5.37
2023-03-27T00:11:48.888Z,5.31
2023-03-27T00:17:07.838Z,5.31
2023-03-27T00:22:26.749Z,5.31
2023-03-27T00:27:45.602Z,5.19
2023-03-27T00:33:04.331Z,4.81
2023-03-27T00:38:23.051Z,4.56
2023-03-27T00:43:41.675Z,4.37
2023-03-27T00:49:00.498Z,4.25
2023-03-27T00:54:19.433Z,4.19
2023-03-27T00:59:41.807Z,4.12
2023-03-27T01:05:00.605Z,4
2023-03-27T01:10:20.951Z,3.94
2023-03-27T01:15:39.988Z,3.87
2023-03-27T01:20:59.711Z,3.87
2023-03-27T01:26:17.566Z,3.81
2023-03-27T01:31:36.567Z,3.81
2023-03-27T01:36:55.521Z,3.75
2023-03-27T01:42:14.144Z,3.81
2023-03-27T01:47:32.521Z,3.69
2023-03-27T01:52:50.730Z,3.62
2023-03-27T01:58:08.941Z,3.5
2023-03-27T02:03:27.982Z,3.44
2023-03-27T02:08:46.752Z,3.37
2023-03-27T02:14:05.318Z,3.37
2023-03-27T02:19:23.905Z,3.37
2023-03-27T02:24:42.531Z,3.31
2023-03-27T02:35:01.164Z,3
2023-03-27T02:50:23.460Z,2.75
2023-03-27T02:55:42.287Z,2.69
2023-03-27T03:01:01.265Z,2.44
2023-03-27T03:06:19.647Z,2.25
2023-03-27T03:11:37.873Z,2.06
2023-03-27T03:16:58.798Z,2
2023-03-27T03:22:19.367Z,1.87
2023-03-27T03:32:38.093Z,1.81
2023-03-27T03:37:56.774Z,1.69
2023-03-27T03:43:14.900Z,1.56
2023-03-27T03:48:35.077Z,1.56
2023-03-27T03:53:54.098Z,1.56
2023-03-27T03:59:14.349Z,1.5
2023-03-27T04:04:34.728Z,1.5
2023-03-27T04:14:52.050Z,1.62
2023-03-27T04:25:09.084Z,1.5
2023-03-27T04:30:28.114Z,1.44
2023-03-27T04:35:46.629Z,1.37
2023-03-27T04:41:04.918Z,1.31
2023-03-27T04:46:23.199Z,1.31
2023-03-27T04:56:40.522Z,1.06
2023-03-27T05:01:59.656Z,0.88
2023-03-27T05:07:18.628Z,0.81
2023-03-27T05:12:37.578Z,0.94
2023-03-27T05:17:55.800Z,1
2023-03-27T05:23:14.180Z,0.88
2023-03-27T05:28:33.877Z,0.62
2023-03-27T05:33:52.773Z,0.56
2023-03-27T05:44:11.529Z,0.37
2023-03-27T05:54:29.296Z,0
2023-03-27T06:04:47.020Z,-0.19
2023-03-27T06:15:05.426Z,0.06
2023-03-27T06:20:24.496Z,0.25
2023-03-27T06:25:43.252Z,0.44
2023-03-27T06:31:02.044Z,0.56
2023-03-27T06:41:19.830Z,1.25
2023-03-27T06:46:44.954Z,1.75
2023-03-27T06:51:57.729Z,2.12
2023-03-27T06:57:16.849Z,2.12
2023-03-27T07:02:35.794Z,2.12
2023-03-27T07:07:54.210Z,2
2023-03-27T07:13:12.778Z,2.12
2023-03-27T07:23:29.865Z,2.87
2023-03-27T07:28:48.355Z,3.19
2023-03-27T07:39:07.474Z,4
2023-03-27T07:44:26.091Z,4
2023-03-27T07:49:44.836Z,4
2023-03-27T07:55:03.565Z,3.87
2023-03-27T08:00:22.977Z,3.81
2023-03-27T08:05:40.899Z,4.12
2023-03-27T08:10:59.248Z,4.87
2023-03-27T08:16:18.042Z,5.56
2023-03-27T08:21:36.186Z,5.31
2023-03-27T08:26:55.640Z,5.94
2023-03-27T08:32:14.242Z,6
2023-03-27T08:37:34.558Z,8.44
2023-03-27T08:42:52.890Z,6.5
2023-03-27T08:48:10.628Z,5.37
2023-03-27T08:53:29.552Z,5.81
2023-03-27T08:58:50.851Z,10.25
2023-03-27T09:04:09.108Z,7.75
2023-03-27T09:09:26.413Z,6.06
2023-03-27T09:14:44.492Z,5.69
2023-03-27T09:20:02.695Z,6.62
2023-03-27T09:25:22.745Z,7.12
2023-03-27T09:30:40.292Z,6.56
2023-03-27T09:35:58.307Z,6
2023-03-27T09:41:17.461Z,7.87
2023-03-27T09:46:37.680Z,8
2023-03-27T09:51:54.812Z,7.56
2023-03-27T09:57:13.122Z,5.87
2023-03-27T10:02:32.309Z,6.12
2023-03-27T10:07:51.279Z,6.56
2023-03-27T10:13:11.940Z,6.62
2023-03-27T10:18:33.766Z,8.94
2023-03-27T10:23:52.654Z,9.13
2023-03-27T10:29:10.609Z,8.56
2023-03-27T10:34:29.151Z,8
2023-03-27T10:39:47.617Z,7.75
2023-03-27T10:45:06.418Z,7.25
2023-03-27T10:50:25.521Z,7.94
2023-03-27T10:55:46.468Z,8.94
2023-03-27T11:01:07.698Z,9.13
2023-03-27T11:06:26.255Z,9.75
2023-03-27T11:11:44.397Z,8.56
2023-03-27T11:17:01.643Z,7.62
2023-03-27T11:22:19.370Z,6.62
2023-03-27T11:27:37.136Z,3.75
2023-03-27T11:32:55.310Z,3.37
2023-03-27T11:38:15.437Z,5.75
2023-03-27T11:43:35.643Z,6.37
2023-03-27T11:48:54.671Z,7.19
2023-03-27T11:54:13.485Z,7.87
2023-03-27T11:59:32.172Z,7.75
2023-03-27T12:04:51.190Z,8
2023-03-27T12:10:10.216Z,8.19
2023-03-27T12:15:28.889Z,10.06
2023-03-27T12:20:52.740Z,9.63
2023-03-27T12:26:03.715Z,8.5
2023-03-27T12:31:20.964Z,7.25
2023-03-27T12:36:38.656Z,7.69
2023-03-27T12:41:59.848Z,9.63
2023-03-27T12:47:18.630Z,10.13
2023-03-27T12:52:37.752Z,9.81
2023-03-27T12:57:55.296Z,8.06
2023-03-27T13:03:12.533Z,6.5
2023-03-27T13:08:30.552Z,6.44
2023-03-27T13:13:50.284Z,7.31
2023-03-27T13:19:08.899Z,7.87
2023-03-27T13:24:27.808Z,9
2023-03-27T13:29:46.608Z,10.06
2023-03-27T13:35:05.277Z,9.19
2023-03-27T13:40:24.242Z,11
2023-03-27T13:45:42.456Z,9.81
2023-03-27T13:51:00.441Z,8.63
2023-03-27T13:56:21.590Z,7.5
2023-03-27T14:01:40.015Z,6.69
2023-03-27T14:06:57.939Z,6.31
2023-03-27T14:12:16.127Z,6.69
2023-03-27T14:17:34.995Z,7.19
2023-03-27T14:22:53.566Z,6.69
2023-03-27T14:28:12.202Z,6.5
2023-03-27T14:33:31.255Z,7.69
2023-03-27T14:38:50.470Z,9.63
2023-03-27T14:44:08.851Z,8.69
2023-03-27T14:49:27.484Z,8.44
2023-03-27T14:54:54.943Z,9.75
2023-03-27T15:00:06.099Z,10
2023-03-27T15:05:25.172Z,10.19
2023-03-27T15:10:43.657Z,10.13
2023-03-27T15:16:03.405Z,9.81
2023-03-27T15:21:22.160Z,10.06
2023-03-27T15:26:40.943Z,9.63
2023-03-27T15:31:59.356Z,9
2023-03-27T15:37:17.836Z,10.75
2023-03-27T15:42:36.286Z,9.13
2023-03-27T15:47:54.616Z,8.38
2023-03-27T15:53:13.137Z,8.06
2023-03-27T15:58:31.562Z,7.75
2023-03-27T16:03:51.782Z,7.62
2023-03-27T16:09:10.267Z,7.5
2023-03-27T16:14:30.503Z,7.62
2023-03-27T16:19:49.256Z,7.62
2023-03-27T16:25:08.054Z,7.37
2023-03-27T16:30:26.695Z,7.19
2023-03-27T16:35:45.622Z,7.25
2023-03-27T16:41:03.849Z,7.06
2023-03-27T16:46:22.044Z,6.75
2023-03-27T16:51:40.455Z,6.5
2023-03-27T16:56:58.756Z,6.44
2023-03-27T17:02:17.168Z,6.31
2023-03-27T17:07:35.952Z,6.12
2023-03-27T17:12:54.150Z,6
2023-03-27T17:18:12.396Z,5.94
2023-03-27T17:23:30.678Z,6.06
2023-03-27T17:28:49.122Z,6.06
2023-03-27T17:34:09.312Z,6.06
2023-03-27T17:39:27.888Z,5.87
2023-03-27T17:44:46.351Z,5.87
2023-03-27T17:50:05.172Z,5.75
2023-03-27T17:55:23.134Z,5.69
2023-03-27T18:00:41.512Z,5.56
2023-03-27T18:05:59.761Z,5.37
2023-03-27T18:11:18.429Z,5.19
2023-03-27T18:16:37.180Z,5
2023-03-27T18:21:55.370Z,4.87
2023-03-27T18:27:15.497Z,4.94
2023-03-27T18:32:34.014Z,4.94
2023-03-27T18:37:52.520Z,4.81
2023-03-27T18:43:13.719Z,4.94
2023-03-27T18:48:31.323Z,4.81
2023-03-27T18:53:49.443Z,4.5
2023-03-27T19:04:17.074Z,4.37
2023-03-27T19:09:40.612Z,4.19
2023-03-27T19:14:53.435Z,4.06
2023-03-27T19:20:12.242Z,3.87
2023-03-27T19:25:30.877Z,3.81
2023-03-27T19:30:49.381Z,3.62
2023-03-27T19:36:08.065Z,3.44
2023-03-27T19:41:26.869Z,3.44
2023-03-27T19:46:47.285Z,3.5
2023-03-27T19:52:05.962Z,3.25
2023-03-27T19:57:24.589Z,2.87
2023-03-27T20:02:44.784Z,3
2023-03-27T20:08:02.893Z,2.81
2023-03-27T20:13:22.950Z,2.62
2023-03-27T20:18:41.596Z,2.25
2023-03-27T20:24:00.194Z,2.12
2023-03-27T20:29:18.882Z,2.12
2023-03-27T20:34:37.521Z,2.06
2023-03-27T20:39:56.149Z,2.25
2023-03-27T20:45:14.555Z,2.19
2023-03-27T20:50:33.433Z,2.19
2023-03-27T20:55:59.154Z,2.06
2023-03-27T21:01:10.646Z,1.87
2023-03-27T21:06:29.147Z,1.69
2023-03-27T21:11:47.861Z,1.5
2023-03-27T21:17:06.136Z,1.31
2023-03-27T21:22:26.204Z,1.12
2023-03-27T21:27:45.146Z,1
2023-03-27T21:33:03.518Z,0.88
2023-03-27T21:38:21.827Z,0.75
2023-03-27T21:43:40.147Z,0.62
2023-03-27T21:48:58.434Z,1
2023-03-27T21:54:17.325Z,0.94
2023-03-27T21:59:35.743Z,1
2023-03-27T22:04:55.832Z,0.88
2023-03-27T22:10:14.560Z,1.12
2023-03-27T22:15:33.125Z,1.56
2023-03-27T22:20:51.495Z,1.44
2023-03-27T22:26:09.776Z,1.5
2023-03-27T22:31:28.206Z,1.69
2023-03-27T22:36:46.865Z,1.62
2023-03-27T22:42:05.902Z,1.31
2023-03-27T22:47:24.483Z,1.31
2023-03-27T22:52:42.716Z,0.94
2023-03-27T22:58:01.123Z,0.62
2023-03-27T23:03:19.794Z,0.37
2023-03-27T23:08:38.830Z,0.37
2023-03-27T23:13:57.970Z,0.13
2023-03-27T23:19:18.162Z,-0.25
2023-03-27T23:24:36.445Z,-0.37
2023-03-27T23:29:54.995Z,-0.56
2023-03-27T23:35:13.400Z,-0.56
2023-03-27T23:40:33.537Z,-0.37
2023-03-27T23:45:50.619Z,-0.19
2023-03-27T23:51:09.572Z,-0.25
2023-03-27T23:56:28.167Z,-0.44
